createdAt,value
2023-01-21T00:00:06.376Z,80.65
2023-01-21T00:01:06.364Z,80.74
2023-01-21T00:02:06.381Z,80.73
2023-01-21T00:03:06.380Z,80.66
2023-01-21T00:04:06.329Z,80.39
2023-01-21T00:05:06.309Z,80.40
2023-01-21T00:06:06.314Z,80.46
2023-01-21T00:07:06.282Z,80.58
2023-01-21T00:08:06.279Z,80.68
2023-01-21T00:09:06.258Z,80.78
2023-01-21T00:10:06.250Z,80.78
2023-01-21T00:11:06.236Z,80.86
2023-01-21T00:12:06.221Z,80.83
2023-01-21T00:13:06.211Z,80.83
2023-01-21T00:14:06.215Z,80.90
2023-01-21T00:15:06.190Z,80.90
2023-01-21T00:16:06.223Z,80.84
2023-01-21T00:17:06.160Z,80.87
2023-01-21T00:18:06.157Z,80.91
2023-01-21T00:19:06.139Z,80.97
2023-01-21T00:20:06.140Z,81.04
2023-01-21T00:21:06.109Z,81.08
2023-01-21T00:22:06.101Z,81.04
2023-01-21T00:23:06.092Z,81.06
2023-01-21T00:24:06.082Z,81.05
2023-01-21T00:25:06.056Z,81.01
2023-01-21T00:26:06.045Z,80.91
2023-01-21T00:27:06.042Z,80.95
2023-01-21T00:28:06.026Z,80.98
2023-01-21T00:29:06.019Z,80.95
2023-01-21T00:30:06.002Z,80.92
2023-01-21T00:31:06.158Z,81.01
2023-01-21T00:32:05.971Z,81.11
2023-01-21T00:33:05.963Z,81.16
2023-01-21T00:34:05.955Z,81.16
2023-01-21T00:35:05.933Z,81.23
2023-01-21T00:36:05.923Z,81.32
2023-01-21T00:37:05.911Z,81.27
2023-01-21T00:38:05.894Z,81.10
2023-01-21T00:39:05.903Z,80.94
2023-01-21T00:40:05.882Z,80.93
2023-01-21T00:41:05.891Z,81.03
2023-01-21T00:42:05.847Z,81.04
2023-01-21T00:43:05.833Z,80.99
2023-01-21T00:44:05.825Z,81.08
2023-01-21T00:45:05.823Z,81.17
2023-01-21T00:46:05.872Z,81.22
2023-01-21T00:47:05.787Z,81.20
2023-01-21T00:48:05.771Z,81.21
2023-01-21T00:49:05.747Z,81.27
2023-01-21T00:50:05.759Z,81.21
2023-01-21T00:51:05.921Z,81.20
2023-01-21T00:52:05.715Z,81.30
2023-01-21T00:53:05.700Z,81.41
2023-01-21T00:54:05.692Z,81.54
2023-01-21T00:55:05.681Z,81.60
2023-01-21T00:56:05.666Z,81.54
2023-01-21T00:57:05.648Z,81.40
2023-01-21T00:58:05.641Z,81.21
2023-01-21T00:59:05.622Z,81.06
2023-01-21T01:00:05.628Z,81.00
2023-01-21T01:01:05.595Z,80.82
2023-01-21T01:02:05.589Z,80.67
2023-01-21T01:03:05.582Z,80.62
2023-01-21T01:04:05.563Z,80.54
2023-01-21T01:05:05.553Z,80.52
2023-01-21T01:06:05.550Z,80.48
2023-01-21T01:07:05.523Z,80.60
2023-01-21T01:08:05.513Z,80.71
2023-01-21T01:09:05.500Z,80.75
2023-01-21T01:10:05.503Z,80.54
2023-01-21T01:11:05.477Z,80.27
2023-01-21T01:12:05.473Z,80.24
2023-01-21T01:13:05.461Z,80.25
2023-01-21T01:14:05.435Z,80.32
2023-01-21T01:15:05.418Z,80.38
2023-01-21T01:16:05.504Z,80.47
2023-01-21T01:17:05.404Z,80.56
2023-01-21T01:18:05.390Z,80.56
2023-01-21T01:19:05.375Z,80.44
2023-01-21T01:20:05.364Z,80.30
2023-01-21T01:21:05.356Z,80.34
2023-01-21T01:22:05.351Z,80.39
2023-01-21T01:23:05.325Z,80.46
2023-01-21T01:24:05.309Z,80.41
2023-01-21T01:25:05.302Z,80.45
2023-01-21T01:26:05.308Z,80.59
2023-01-21T01:27:05.267Z,80.56
2023-01-21T01:28:05.271Z,80.45
2023-01-21T01:29:05.246Z,80.21
2023-01-21T01:30:05.236Z,80.13
2023-01-21T01:31:05.334Z,80.16
2023-01-21T01:32:05.237Z,80.18
2023-01-21T01:33:05.195Z,80.21
2023-01-21T01:34:05.192Z,80.23
2023-01-21T01:35:05.168Z,80.25
2023-01-21T01:36:05.179Z,80.32
2023-01-21T01:37:05.166Z,80.42
2023-01-21T01:38:05.131Z,80.47
2023-01-21T01:39:05.119Z,80.47
2023-01-21T01:40:05.122Z,80.51
2023-01-21T01:41:05.109Z,80.47
2023-01-21T01:42:05.103Z,80.37
2023-01-21T01:43:05.067Z,80.35
2023-01-21T01:44:05.077Z,80.40
2023-01-21T01:45:05.046Z,80.44
2023-01-21T01:46:05.075Z,80.45
2023-01-21T01:47:05.034Z,80.41
2023-01-21T01:48:05.003Z,80.30
2023-01-21T01:49:04.991Z,80.28
2023-01-21T01:50:04.992Z,80.18
2023-01-21T01:51:05.012Z,80.16
2023-01-21T01:52:04.978Z,80.16
2023-01-21T01:53:04.949Z,80.27
2023-01-21T01:54:04.943Z,80.38
2023-01-21T01:55:04.926Z,80.45
2023-01-21T01:56:04.927Z,80.53
2023-01-21T01:57:04.899Z,80.60
2023-01-21T01:58:04.882Z,80.58
2023-01-21T01:59:04.868Z,80.43
2023-01-21T02:00:04.882Z,80.17
2023-01-21T02:01:04.841Z,79.91
2023-01-21T02:02:04.837Z,79.74
2023-01-21T02:03:04.834Z,79.63
2023-01-21T02:04:04.803Z,79.65
2023-01-21T02:05:04.788Z,79.76
2023-01-21T02:06:04.790Z,79.95
2023-01-21T02:07:04.779Z,80.02
2023-01-21T02:08:04.752Z,80.03
2023-01-21T02:09:04.747Z,80.03
2023-01-21T02:10:04.729Z,79.85
2023-01-21T02:11:04.711Z,79.72
2023-01-21T02:12:04.720Z,79.72
2023-01-21T02:13:04.691Z,79.66
2023-01-21T02:14:04.676Z,79.67
2023-01-21T02:15:04.667Z,79.66
2023-01-21T02:16:04.686Z,79.63
2023-01-21T02:17:04.644Z,79.72
2023-01-21T02:18:04.638Z,79.76
2023-01-21T02:19:04.609Z,79.80
2023-01-21T02:20:04.597Z,79.91
2023-01-21T02:21:04.614Z,79.91
2023-01-21T02:22:04.589Z,79.90
2023-01-21T02:23:04.563Z,79.81
2023-01-21T02:24:04.549Z,79.75
2023-01-21T02:25:04.536Z,79.68
2023-01-21T02:26:04.521Z,79.70
2023-01-21T02:27:04.520Z,79.73
2023-01-21T02:28:04.515Z,79.79
2023-01-21T02:29:04.483Z,79.84
2023-01-21T02:30:04.497Z,79.83
2023-01-21T02:31:04.589Z,79.82
2023-01-21T02:32:04.456Z,79.86
2023-01-21T02:33:04.447Z,79.89
2023-01-21T02:34:04.424Z,79.85
2023-01-21T02:35:04.409Z,79.85
2023-01-21T02:36:04.410Z,79.81
2023-01-21T02:37:04.379Z,79.82
2023-01-21T02:38:04.375Z,79.84
2023-01-21T02:39:04.359Z,79.69
2023-01-21T02:40:04.349Z,79.50
2023-01-21T02:41:04.325Z,79.39
2023-01-21T02:42:04.331Z,79.34
2023-01-21T02:43:04.314Z,79.33
2023-01-21T02:44:04.290Z,79.38
2023-01-21T02:45:04.294Z,79.39
2023-01-21T02:46:04.271Z,79.43
2023-01-21T02:47:04.252Z,79.57
2023-01-21T02:48:04.280Z,79.70
2023-01-21T02:49:04.233Z,79.86
2023-01-21T02:50:04.219Z,79.90
2023-01-21T02:51:04.257Z,79.85
2023-01-21T02:52:04.204Z,79.78
2023-01-21T02:53:04.190Z,79.72
2023-01-21T02:54:04.190Z,79.64
2023-01-21T02:55:04.160Z,79.50
2023-01-21T02:56:04.140Z,79.34
2023-01-21T02:57:04.126Z,79.39
2023-01-21T02:58:04.120Z,79.55
2023-01-21T02:59:04.112Z,79.59
2023-01-21T03:00:04.101Z,79.59
2023-01-21T03:01:04.167Z,79.73
2023-01-21T03:02:04.094Z,79.89
2023-01-21T03:03:10.548Z,79.98
2023-01-21T03:04:04.231Z,80.08
2023-01-21T03:05:04.033Z,80.11
2023-01-21T03:06:04.022Z,80.14
2023-01-21T03:07:04.029Z,80.05
2023-01-21T03:08:04.034Z,79.83
2023-01-21T03:09:03.975Z,79.84
2023-01-21T03:10:03.997Z,79.99
2023-01-21T03:11:03.957Z,80.11
2023-01-21T03:12:03.943Z,80.16
2023-01-21T03:13:03.954Z,80.11
2023-01-21T03:14:03.927Z,80.09
2023-01-21T03:15:03.922Z,80.14
2023-01-21T03:16:03.987Z,80.16
2023-01-21T03:17:03.902Z,80.16
2023-01-21T03:18:03.878Z,80.15
2023-01-21T03:19:03.862Z,80.18
2023-01-21T03:20:03.869Z,80.16
2023-01-21T03:21:03.848Z,80.16
2023-01-21T03:22:03.839Z,80.16
2023-01-21T03:23:03.841Z,80.13
2023-01-21T03:24:03.794Z,80.16
2023-01-21T03:25:03.805Z,80.17
2023-01-21T03:26:03.778Z,80.17
2023-01-21T03:27:03.758Z,80.18
2023-01-21T03:28:03.765Z,80.19
2023-01-21T03:29:03.740Z,80.25
2023-01-21T03:30:03.774Z,80.23
2023-01-21T03:31:03.791Z,80.15
2023-01-21T03:32:03.697Z,80.10
2023-01-21T03:33:03.683Z,80.16
2023-01-21T03:34:03.676Z,80.23
2023-01-21T03:35:03.660Z,80.14
2023-01-21T03:36:03.657Z,80.02
2023-01-21T03:37:03.637Z,79.97
2023-01-21T03:38:03.625Z,80.03
2023-01-21T03:39:03.607Z,80.05
2023-01-21T03:40:03.607Z,80.11
2023-01-21T03:41:03.579Z,80.24
2023-01-21T03:42:03.591Z,80.34
2023-01-21T03:43:03.586Z,80.36
2023-01-21T03:44:03.569Z,80.30
2023-01-21T03:45:03.539Z,80.28
2023-01-21T03:46:03.584Z,80.32
2023-01-21T03:47:03.518Z,80.31
2023-01-21T03:48:03.518Z,80.30
2023-01-21T03:49:03.492Z,80.36
2023-01-21T03:50:03.485Z,80.33
2023-01-21T03:51:03.519Z,80.27
2023-01-21T03:52:03.439Z,80.15
2023-01-21T03:53:03.436Z,80.13
2023-01-21T03:54:03.417Z,79.94
2023-01-21T03:55:03.404Z,79.67
2023-01-21T03:56:03.406Z,79.61
2023-01-21T03:57:05.967Z,79.59
2023-01-21T03:58:03.375Z,79.58
2023-01-21T03:59:03.370Z,79.52
2023-01-21T04:00:03.357Z,79.46
2023-01-21T04:01:03.455Z,79.43
2023-01-21T04:02:03.396Z,79.40
2023-01-21T04:03:03.306Z,79.36
2023-01-21T04:04:03.296Z,79.38
2023-01-21T04:05:03.320Z,79.51
2023-01-21T04:06:03.305Z,79.62
2023-01-21T04:07:03.320Z,79.69
2023-01-21T04:08:03.245Z,79.66
2023-01-21T04:09:03.240Z,79.57
2023-01-21T04:10:03.226Z,79.34
2023-01-21T04:11:03.222Z,79.22
2023-01-21T04:12:03.207Z,79.36
2023-01-21T04:13:03.194Z,79.45
2023-01-21T04:14:03.179Z,79.47
2023-01-21T04:15:05.469Z,79.45
2023-01-21T04:16:03.176Z,79.47
2023-01-21T04:17:03.140Z,79.40
2023-01-21T04:18:03.155Z,79.34
2023-01-21T04:19:03.121Z,79.23
2023-01-21T04:20:03.102Z,79.17
2023-01-21T04:21:03.079Z,79.25
2023-01-21T04:22:03.075Z,79.31
2023-01-21T04:23:03.072Z,79.31
2023-01-21T04:24:03.049Z,79.30
2023-01-21T04:25:03.046Z,79.37
2023-01-21T04:26:03.025Z,79.45
2023-01-21T04:27:03.042Z,79.51
2023-01-21T04:28:03.012Z,79.51
2023-01-21T04:29:02.993Z,79.49
2023-01-21T04:30:02.980Z,79.31
2023-01-21T04:31:03.016Z,79.29
2023-01-21T04:32:03.058Z,79.38
2023-01-21T04:33:02.956Z,79.42
2023-01-21T04:34:02.922Z,79.40
2023-01-21T04:35:02.915Z,79.37
2023-01-21T04:36:02.907Z,79.40
2023-01-21T04:37:02.904Z,79.48
2023-01-21T04:38:02.886Z,79.44
2023-01-21T04:39:02.883Z,79.36
2023-01-21T04:40:02.863Z,79.32
2023-01-21T04:41:02.844Z,79.40
2023-01-21T04:42:02.870Z,79.43
2023-01-21T04:43:02.820Z,79.44
2023-01-21T04:44:02.806Z,79.37
2023-01-21T04:45:02.791Z,79.45
2023-01-21T04:46:02.877Z,79.52
2023-01-21T04:47:02.822Z,79.50
2023-01-21T04:48:02.751Z,79.41
2023-01-21T04:49:02.749Z,79.27
2023-01-21T04:50:02.728Z,79.19
2023-01-21T04:51:02.760Z,79.21
2023-01-21T04:52:02.696Z,79.32
2023-01-21T04:53:02.716Z,79.34
2023-01-21T04:54:02.683Z,79.33
2023-01-21T04:55:02.666Z,79.23
2023-01-21T04:56:02.662Z,79.12
2023-01-21T04:57:02.639Z,79.17
2023-01-21T04:58:02.624Z,79.17
2023-01-21T04:59:02.620Z,79.11
2023-01-21T05:00:02.627Z,79.14
2023-01-21T05:01:02.619Z,79.18
2023-01-21T05:02:02.643Z,79.22
2023-01-21T05:03:02.582Z,79.22
2023-01-21T05:04:02.576Z,79.10
2023-01-21T05:05:02.548Z,79.09
2023-01-21T05:06:02.528Z,79.10
2023-01-21T05:07:02.522Z,79.05
2023-01-21T05:08:02.508Z,79.08
2023-01-21T05:09:02.499Z,79.24
2023-01-21T05:10:02.486Z,79.39
2023-01-21T05:11:02.462Z,79.45
2023-01-21T05:12:02.448Z,79.47
2023-01-21T05:13:02.447Z,79.38
2023-01-21T05:14:02.441Z,79.12
2023-01-21T05:15:02.424Z,79.02
2023-01-21T05:16:02.453Z,79.10
2023-01-21T05:17:02.495Z,79.29
2023-01-21T05:18:02.370Z,79.37
2023-01-21T05:19:02.376Z,79.36
2023-01-21T05:20:02.354Z,79.33
2023-01-21T05:21:02.347Z,79.41
2023-01-21T05:22:02.327Z,79.43
2023-01-21T05:23:02.327Z,79.43
2023-01-21T05:24:02.332Z,79.47
2023-01-21T05:25:02.288Z,79.45
2023-01-21T05:26:02.291Z,79.36
2023-01-21T05:27:02.274Z,79.30
2023-01-21T05:28:02.266Z,79.26
2023-01-21T05:29:02.245Z,79.22
2023-01-21T05:30:02.236Z,79.08
2023-01-21T05:31:02.391Z,79.03
2023-01-21T05:32:02.281Z,79.05
2023-01-21T05:33:02.187Z,79.07
2023-01-21T05:34:02.247Z,79.14
2023-01-21T05:35:02.177Z,79.11
2023-01-21T05:36:02.146Z,79.09
2023-01-21T05:37:02.170Z,78.96
2023-01-21T05:38:02.127Z,78.89
2023-01-21T05:39:02.112Z,78.77
2023-01-21T05:40:02.126Z,78.65
2023-01-21T05:41:02.114Z,78.55
2023-01-21T05:42:02.103Z,78.48
2023-01-21T05:43:02.063Z,78.49
2023-01-21T05:44:02.056Z,78.47
2023-01-21T05:45:02.076Z,78.43
2023-01-21T05:46:02.092Z,78.47
2023-01-21T05:47:02.018Z,78.52
2023-01-21T05:48:02.045Z,78.54
2023-01-21T05:49:02.024Z,78.56
2023-01-21T05:50:01.985Z,78.61
2023-01-21T05:51:02.020Z,78.60
2023-01-21T05:52:01.955Z,78.53
2023-01-21T05:53:01.954Z,78.60
2023-01-21T05:54:01.924Z,78.66
2023-01-21T05:55:02.954Z,78.56
2023-01-21T05:56:01.905Z,78.43
2023-01-21T05:57:01.896Z,78.22
2023-01-21T05:58:01.885Z,78.10
2023-01-21T05:59:01.891Z,78.12
2023-01-21T06:00:01.899Z,78.18
2023-01-21T06:01:01.841Z,78.28
2023-01-21T06:02:01.900Z,78.36
2023-01-21T06:03:01.831Z,78.29
2023-01-21T06:04:01.808Z,78.14
2023-01-21T06:05:01.801Z,78.10
2023-01-21T06:06:01.808Z,78.03
2023-01-21T06:07:01.766Z,77.95
2023-01-21T06:08:01.754Z,78.12
2023-01-21T06:09:01.761Z,78.29
2023-01-21T06:10:01.766Z,78.38
2023-01-21T06:11:01.762Z,78.43
2023-01-21T06:12:01.699Z,78.59
2023-01-21T06:13:01.694Z,78.59
2023-01-21T06:14:01.680Z,78.51
2023-01-21T06:15:01.666Z,78.42
2023-01-21T06:16:01.732Z,78.50
2023-01-21T06:17:01.642Z,78.52
2023-01-21T06:18:01.625Z,78.52
2023-01-21T06:19:01.629Z,78.61
2023-01-21T06:20:01.622Z,78.65
2023-01-21T06:21:01.613Z,78.61
2023-01-21T06:22:01.613Z,78.55
2023-01-21T06:23:01.570Z,78.63
2023-01-21T06:24:01.549Z,78.74
2023-01-21T06:25:01.585Z,78.82
2023-01-21T06:26:01.541Z,78.76
2023-01-21T06:27:01.549Z,78.73
2023-01-21T06:28:01.539Z,78.78
2023-01-21T06:29:01.565Z,78.89
2023-01-21T06:30:01.525Z,78.94
2023-01-21T06:31:01.659Z,78.98
2023-01-21T06:32:01.648Z,78.95
2023-01-21T06:33:01.465Z,78.81
2023-01-21T06:34:01.437Z,78.84
2023-01-21T06:35:01.420Z,78.97
2023-01-21T06:36:01.419Z,78.93
2023-01-21T06:37:01.420Z,78.97
2023-01-21T06:38:01.394Z,78.96
2023-01-21T06:39:01.373Z,78.90
2023-01-21T06:40:01.355Z,78.88
2023-01-21T06:41:01.366Z,78.90
2023-01-21T06:42:01.365Z,78.87
2023-01-21T06:43:01.352Z,78.86
2023-01-21T06:44:01.305Z,78.90
2023-01-21T06:45:01.312Z,78.86
2023-01-21T06:46:01.333Z,78.78
2023-01-21T06:47:01.994Z,78.81
2023-01-21T06:48:01.262Z,78.88
2023-01-21T06:49:01.250Z,78.76
2023-01-21T06:50:01.240Z,78.66
2023-01-21T06:51:01.295Z,78.69
2023-01-21T06:52:01.213Z,78.72
2023-01-21T06:53:01.197Z,78.75
2023-01-21T06:54:01.199Z,78.84
2023-01-21T06:55:01.167Z,78.93
2023-01-21T06:56:01.163Z,78.90
2023-01-21T06:57:01.160Z,78.85
2023-01-21T06:58:01.129Z,78.84
2023-01-21T06:59:01.119Z,78.83
2023-01-21T07:00:01.115Z,78.79
2023-01-21T07:01:01.113Z,78.74
2023-01-21T07:02:01.122Z,78.64
2023-01-21T07:03:01.127Z,78.54
2023-01-21T07:04:01.120Z,78.41
2023-01-21T07:05:01.103Z,78.29
2023-01-21T07:06:01.031Z,78.24
2023-01-21T07:07:01.027Z,78.19
2023-01-21T07:08:01.048Z,78.20
2023-01-21T07:09:01.021Z,78.33
2023-01-21T07:10:00.994Z,78.30
2023-01-21T07:11:00.977Z,78.31
2023-01-21T07:12:01.004Z,78.33
2023-01-21T07:13:00.959Z,78.30
2023-01-21T07:14:00.931Z,78.26
2023-01-21T07:15:00.966Z,78.26
2023-01-21T07:16:01.022Z,78.24
2023-01-21T07:17:00.945Z,78.23
2023-01-21T07:18:00.881Z,78.19
2023-01-21T07:19:00.882Z,78.07
2023-01-21T07:20:00.870Z,77.99
2023-01-21T07:21:00.849Z,77.90
2023-01-21T07:22:00.847Z,77.96
2023-01-21T07:23:00.826Z,77.99
2023-01-21T07:24:00.836Z,78.00
2023-01-21T07:25:00.821Z,78.05
2023-01-21T07:26:00.788Z,78.01
2023-01-21T07:27:00.815Z,77.87
2023-01-21T07:28:00.768Z,77.84
2023-01-21T07:29:02.088Z,78.01
2023-01-21T07:30:00.831Z,78.08
2023-01-21T07:31:00.817Z,78.19
2023-01-21T07:32:00.806Z,78.31
2023-01-21T07:33:01.667Z,78.10
2023-01-21T07:34:00.696Z,77.89
2023-01-21T07:35:00.680Z,77.86
2023-01-21T07:36:00.669Z,77.93
2023-01-21T07:37:00.682Z,78.01
2023-01-21T07:38:00.643Z,77.98
2023-01-21T07:39:00.652Z,77.87
2023-01-21T07:40:00.633Z,77.96
2023-01-21T07:41:00.601Z,78.25
2023-01-21T07:42:00.590Z,78.42
2023-01-21T07:43:00.589Z,78.58
2023-01-21T07:44:00.594Z,78.60
2023-01-21T07:45:00.567Z,78.48
2023-01-21T07:46:00.593Z,78.46
2023-01-21T07:47:00.525Z,78.30
2023-01-21T07:48:00.532Z,77.95
2023-01-21T07:49:00.495Z,77.66
2023-01-21T07:50:00.514Z,77.45
2023-01-21T07:51:00.531Z,77.18
2023-01-21T07:52:00.477Z,77.19
2023-01-21T07:53:00.460Z,77.26
2023-01-21T07:54:00.449Z,77.20
2023-01-21T07:55:00.450Z,77.13
2023-01-21T07:56:00.409Z,77.11
2023-01-21T07:57:00.407Z,77.15
2023-01-21T07:58:02.947Z,77.15
2023-01-21T07:59:00.402Z,77.34
2023-01-21T08:00:00.363Z,77.57
2023-01-21T08:01:00.404Z,77.57
2023-01-21T08:02:00.561Z,77.48
2023-01-21T08:03:00.378Z,77.52
2023-01-21T08:04:00.314Z,77.54
2023-01-21T08:05:00.309Z,77.60
2023-01-21T08:06:01.271Z,77.58
2023-01-21T08:07:00.321Z,77.50
2023-01-21T08:08:00.287Z,77.51
2023-01-21T08:09:00.257Z,77.52
2023-01-21T08:10:00.278Z,77.63
2023-01-21T08:11:01.167Z,77.56
2023-01-21T08:12:00.226Z,77.40
2023-01-21T08:13:00.219Z,77.26
2023-01-21T08:14:00.198Z,77.20
2023-01-21T08:15:00.196Z,77.27
2023-01-21T08:16:00.209Z,77.37
2023-01-21T08:17:00.161Z,77.54
2023-01-21T08:18:00.152Z,77.62
2023-01-21T08:19:00.160Z,77.51
2023-01-21T08:20:00.129Z,77.44
2023-01-21T08:21:00.113Z,77.45
2023-01-21T08:22:00.111Z,77.31
2023-01-21T08:23:00.121Z,77.20
2023-01-21T08:24:00.111Z,77.21
2023-01-21T08:25:00.049Z,77.27
2023-01-21T08:26:00.040Z,77.25
2023-01-21T08:27:00.063Z,77.09
2023-01-21T08:28:00.023Z,77.12
2023-01-21T08:29:00.008Z,77.12
2023-01-21T08:29:59.999Z,77.11
2023-01-21T08:31:00.016Z,77.16
2023-01-21T08:31:59.971Z,77.18
2023-01-21T08:32:59.943Z,77.14
2023-01-21T08:33:59.944Z,77.10
2023-01-21T08:34:59.927Z,77.15
2023-01-21T08:35:59.923Z,77.24
2023-01-21T08:36:59.896Z,77.20
2023-01-21T08:37:59.957Z,77.28
2023-01-21T08:38:59.895Z,77.17
2023-01-21T08:39:59.865Z,76.80
2023-01-21T08:40:59.860Z,76.64
2023-01-21T08:41:59.848Z,76.58
2023-01-21T08:42:59.854Z,76.65
2023-01-21T08:44:00.655Z,76.87
2023-01-21T08:44:59.812Z,76.91
2023-01-21T08:45:59.823Z,76.88
2023-01-21T08:46:59.804Z,76.92
2023-01-21T08:47:59.774Z,77.11
2023-01-21T08:48:59.757Z,77.12
2023-01-21T08:49:59.744Z,77.04
2023-01-21T08:50:59.848Z,77.14
2023-01-21T08:51:59.721Z,77.10
2023-01-21T08:52:59.716Z,77.06
2023-01-21T08:53:59.709Z,77.12
2023-01-21T08:54:59.677Z,77.08
2023-01-21T08:55:59.683Z,77.00
2023-01-21T08:56:59.659Z,77.07
2023-01-21T08:57:59.646Z,77.14
2023-01-21T08:58:59.650Z,77.37
2023-01-21T08:59:59.612Z,77.52
2023-01-21T09:00:59.631Z,77.50
2023-01-21T09:01:59.618Z,77.39
2023-01-21T09:03:55.333Z,77.14
2023-01-21T09:04:56.199Z,77.02
2023-01-21T09:05:56.193Z,77.12
2023-01-21T09:06:56.199Z,77.34
2023-01-21T09:07:58.075Z,77.46
2023-01-21T09:08:56.132Z,77.56
2023-01-21T09:09:56.138Z,77.65
2023-01-21T09:10:56.104Z,77.58
2023-01-21T09:11:56.119Z,77.38
2023-01-21T09:12:56.115Z,77.34
2023-01-21T09:13:56.069Z,77.38
2023-01-21T09:14:56.063Z,77.39
2023-01-21T09:15:56.052Z,77.43
2023-01-21T09:16:56.034Z,77.57
2023-01-21T09:17:56.053Z,77.68
2023-01-21T09:18:56.016Z,77.63
2023-01-21T09:19:56.022Z,77.59
2023-01-21T09:20:55.981Z,77.60
2023-01-21T09:21:55.997Z,77.67
2023-01-21T09:22:55.956Z,77.66
2023-01-21T09:23:55.961Z,77.70
2023-01-21T09:24:55.958Z,77.91
2023-01-21T09:25:55.923Z,78.10
2023-01-21T09:26:55.912Z,78.14
2023-01-21T09:27:55.916Z,78.12
2023-01-21T09:28:55.875Z,78.12
2023-01-21T09:29:55.896Z,78.08
2023-01-21T09:30:55.897Z,77.99
2023-01-21T09:31:55.885Z,78.02
2023-01-21T09:32:55.845Z,78.31
2023-01-21T09:33:55.849Z,78.56
2023-01-21T09:34:55.812Z,78.56
2023-01-21T09:35:55.813Z,78.56
2023-01-21T09:36:55.779Z,78.41
2023-01-21T09:37:55.778Z,78.38
2023-01-21T09:38:55.749Z,78.45
2023-01-21T09:39:55.776Z,78.44
2023-01-21T09:40:55.756Z,78.37
2023-01-21T09:41:55.735Z,78.46
2023-01-21T09:42:55.716Z,78.54
2023-01-21T09:43:55.687Z,78.58
2023-01-21T09:44:55.700Z,78.54
2023-01-21T09:45:55.698Z,78.47
2023-01-21T09:46:55.660Z,78.46
2023-01-21T09:47:55.673Z,78.44
2023-01-21T09:48:55.646Z,78.30
2023-01-21T09:49:55.630Z,78.33
2023-01-21T09:50:55.621Z,78.41
2023-01-21T09:51:55.612Z,78.44
2023-01-21T09:52:55.570Z,78.29
2023-01-21T09:53:55.598Z,78.30
2023-01-21T09:54:55.553Z,78.37
2023-01-21T09:55:55.562Z,78.46
2023-01-21T09:56:55.535Z,78.62
2023-01-21T09:57:55.512Z,78.68
2023-01-21T09:58:55.499Z,78.83
2023-01-21T09:59:55.493Z,78.96
2023-01-21T10:00:55.546Z,79.03
2023-01-21T10:01:55.484Z,79.06
2023-01-21T10:02:55.444Z,79.05
2023-01-21T10:03:55.449Z,78.97
2023-01-21T10:04:55.435Z,78.95
2023-01-21T10:05:55.449Z,78.98
2023-01-21T10:06:55.406Z,78.87
2023-01-21T10:07:55.394Z,78.48
2023-01-21T10:08:55.380Z,78.36
2023-01-21T10:09:55.378Z,78.43
2023-01-21T10:10:55.390Z,78.50
2023-01-21T10:11:55.353Z,78.42
2023-01-21T10:12:55.381Z,78.49
2023-01-21T10:13:55.370Z,78.62
2023-01-21T10:14:55.300Z,78.85
2023-01-21T10:15:55.336Z,78.91
2023-01-21T10:16:55.371Z,79.01
2023-01-21T10:17:55.291Z,79.16
2023-01-21T10:18:55.297Z,79.24
2023-01-21T10:19:55.273Z,79.29
2023-01-21T10:20:55.288Z,79.16
2023-01-21T10:21:55.222Z,79.09
2023-01-21T10:22:55.188Z,78.98
2023-01-21T10:23:55.246Z,78.94
2023-01-21T10:24:55.168Z,78.71
2023-01-21T10:25:55.207Z,78.61
2023-01-21T10:26:55.148Z,78.71
2023-01-21T10:27:55.129Z,78.71
2023-01-21T10:28:55.116Z,78.69
2023-01-21T10:29:55.125Z,78.72
2023-01-21T10:30:55.241Z,78.74
2023-01-21T10:31:55.147Z,78.70
2023-01-21T10:32:55.079Z,78.63
2023-01-21T10:33:55.066Z,78.61
2023-01-21T10:34:55.051Z,78.79
2023-01-21T10:35:55.130Z,78.84
2023-01-21T10:36:55.014Z,78.83
2023-01-21T10:37:55.039Z,78.84
2023-01-21T10:38:55.002Z,78.77
2023-01-21T10:39:54.991Z,78.80
2023-01-21T10:40:55.202Z,78.69
2023-01-21T10:41:54.954Z,78.58
2023-01-21T10:42:54.994Z,78.56
2023-01-21T10:43:54.948Z,78.38
2023-01-21T10:44:54.927Z,78.42
2023-01-21T10:45:54.995Z,78.54
2023-01-21T10:46:54.897Z,78.62
2023-01-21T10:47:54.915Z,78.62
2023-01-21T10:48:54.881Z,78.58
2023-01-21T10:49:54.858Z,78.54
2023-01-21T10:50:54.853Z,78.52
2023-01-21T10:51:54.845Z,78.54
2023-01-21T10:52:54.838Z,78.65
2023-01-21T10:53:54.807Z,78.69
2023-01-21T10:54:54.794Z,78.70
2023-01-21T10:55:54.798Z,78.75
2023-01-21T10:56:54.779Z,78.66
2023-01-21T10:57:54.773Z,78.56
2023-01-21T10:58:54.731Z,78.52
2023-01-21T10:59:54.732Z,78.55
2023-01-21T11:00:54.746Z,78.52
2023-01-21T11:01:54.727Z,78.48
2023-01-21T11:02:54.776Z,78.38
2023-01-21T11:03:54.671Z,78.42
2023-01-21T11:04:54.669Z,78.54
2023-01-21T11:05:54.676Z,78.61
2023-01-21T11:06:54.626Z,78.69
2023-01-21T11:07:54.638Z,78.65
2023-01-21T11:08:54.645Z,78.58
2023-01-21T11:09:54.593Z,78.63
2023-01-21T11:10:54.582Z,78.70
2023-01-21T11:11:54.590Z,78.79
2023-01-21T11:12:54.565Z,78.83
2023-01-21T11:13:54.556Z,78.61
2023-01-21T11:14:54.552Z,78.61
2023-01-21T11:15:54.605Z,78.52
2023-01-21T11:16:54.505Z,78.61
2023-01-21T11:17:54.516Z,78.62
2023-01-21T11:18:54.588Z,78.57
2023-01-21T11:19:54.473Z,78.45
2023-01-21T11:20:54.488Z,78.47
2023-01-21T11:21:54.439Z,78.66
2023-01-21T11:22:54.441Z,78.69
2023-01-21T11:23:54.440Z,78.71
2023-01-21T11:24:54.409Z,78.67
2023-01-21T11:25:54.413Z,78.54
2023-01-21T11:26:54.379Z,78.45
2023-01-21T11:27:54.383Z,78.39
2023-01-21T11:28:54.371Z,78.35
2023-01-21T11:29:54.396Z,78.38
2023-01-21T11:30:54.765Z,78.29
2023-01-21T11:31:54.407Z,78.22
2023-01-21T11:32:54.300Z,78.18
2023-01-21T11:33:54.319Z,78.30
2023-01-21T11:34:54.375Z,78.57
2023-01-21T11:35:54.286Z,78.71
2023-01-21T11:36:54.327Z,78.74
2023-01-21T11:37:54.262Z,78.85
2023-01-21T11:38:54.242Z,78.91
2023-01-21T11:39:54.257Z,78.90
2023-01-21T11:40:54.204Z,78.91
2023-01-21T11:41:54.190Z,78.79
2023-01-21T11:42:54.212Z,78.66
2023-01-21T11:43:54.179Z,78.60
2023-01-21T11:44:54.178Z,78.60
2023-01-21T11:45:54.150Z,78.43
2023-01-21T11:46:54.158Z,78.44
2023-01-21T11:47:54.119Z,78.59
2023-01-21T11:48:54.119Z,78.61
2023-01-21T11:49:54.111Z,78.65
2023-01-21T11:50:54.169Z,78.67
2023-01-21T11:51:54.070Z,78.74
2023-01-21T11:52:54.109Z,78.84
2023-01-21T11:53:54.062Z,78.91
2023-01-21T11:54:54.035Z,78.99
2023-01-21T11:55:54.030Z,79.02
2023-01-21T11:56:54.059Z,79.04
2023-01-21T11:57:54.025Z,79.07
2023-01-21T11:58:53.971Z,79.05
2023-01-21T11:59:53.986Z,78.94
2023-01-21T12:00:53.975Z,78.92
2023-01-21T12:01:53.940Z,78.82
2023-01-21T12:02:53.989Z,78.67
2023-01-21T12:03:53.992Z,78.51
2023-01-21T12:04:53.920Z,78.54
2023-01-21T12:05:53.954Z,78.65
2023-01-21T12:06:53.879Z,78.73
2023-01-21T12:07:53.866Z,78.75
2023-01-21T12:08:53.851Z,78.97
2023-01-21T12:09:53.862Z,78.90
2023-01-21T12:10:53.855Z,78.75
2023-01-21T12:11:53.820Z,78.72
2023-01-21T12:12:53.800Z,78.74
2023-01-21T12:13:53.818Z,78.85
2023-01-21T12:14:53.770Z,78.99
2023-01-21T12:15:53.859Z,79.11
2023-01-21T12:16:53.749Z,79.30
2023-01-21T12:17:53.782Z,79.48
2023-01-21T12:18:53.731Z,79.33
2023-01-21T12:19:53.711Z,79.03
2023-01-21T12:20:53.709Z,78.94
2023-01-21T12:21:53.708Z,78.95
2023-01-21T12:22:53.683Z,79.08
2023-01-21T12:23:54.524Z,79.18
2023-01-21T12:24:53.671Z,79.27
2023-01-21T12:25:53.643Z,79.26
2023-01-21T12:26:53.641Z,79.26
2023-01-21T12:27:53.619Z,79.31
2023-01-21T12:28:53.616Z,79.22
2023-01-21T12:29:53.591Z,79.11
2023-01-21T12:30:53.694Z,79.08
2023-01-21T12:31:53.623Z,79.13
2023-01-21T12:32:53.584Z,79.18
2023-01-21T12:33:53.542Z,79.28
2023-01-21T12:34:53.520Z,79.41
2023-01-21T12:35:53.524Z,79.38
2023-01-21T12:36:53.638Z,79.37
2023-01-21T12:37:53.508Z,79.31
2023-01-21T12:38:53.471Z,79.03
2023-01-21T12:39:53.465Z,79.00
2023-01-21T12:40:53.481Z,79.02
2023-01-21T12:41:53.431Z,79.08
2023-01-21T12:42:53.433Z,79.10
2023-01-21T12:43:53.404Z,78.99
2023-01-21T12:44:53.403Z,78.82
2023-01-21T12:45:53.408Z,78.76
2023-01-21T12:46:53.523Z,78.88
2023-01-21T12:47:53.438Z,79.08
2023-01-21T12:48:53.390Z,79.14
2023-01-21T12:49:53.360Z,79.18
2023-01-21T12:50:53.438Z,79.25
2023-01-21T12:51:53.329Z,79.22
2023-01-21T12:52:53.322Z,79.13